createdAt,value
2023-12-18T00:00:01.197Z,97468.22
2023-12-18T00:02:29.532Z,97467.63
2023-12-18T00:04:57.844Z,97462.75
2023-12-18T00:07:28.053Z,97464.16
2023-12-18T00:09:56.543Z,97460.72
2023-12-18T00:12:24.732Z,97451.50
2023-12-18T00:14:53.476Z,97455.81
2023-12-18T00:17:21.671Z,97455.25
2023-12-18T00:19:49.978Z,97450.31
2023-12-18T00:22:18.340Z,97446.22
2023-12-18T00:24:48.234Z,97441.72
2023-12-18T00:27:16.538Z,97445.84
2023-12-18T00:29:44.765Z,97440.28
2023-12-18T00:32:13.068Z,97432.28
2023-12-18T00:34:42.352Z,97433.19
2023-12-18T00:37:10.971Z,97425.44
2023-12-18T00:39:39.321Z,97427.47
2023-12-18T00:42:09.093Z,97422.41
2023-12-18T00:44:37.393Z,97413.38
2023-12-18T00:47:05.941Z,97419.50
2023-12-18T00:49:34.440Z,97424.25
2023-12-18T00:52:02.784Z,97418.31
2023-12-18T00:54:31.039Z,97408.31
2023-12-18T00:56:59.198Z,97398.72
2023-12-18T00:59:28.988Z,97403.63
2023-12-18T01:01:57.203Z,97401.63
2023-12-18T01:04:25.754Z,97398.59
2023-12-18T01:06:54.019Z,97400.69
2023-12-18T01:09:22.277Z,97400.50
2023-12-18T01:11:50.984Z,97396.84
2023-12-18T01:14:19.295Z,97386.00
2023-12-18T01:16:48.924Z,97396.84
2023-12-18T01:19:17.170Z,97395.44
2023-12-18T01:21:45.445Z,97390.31
2023-12-18T01:24:13.685Z,97389.53
2023-12-18T01:26:41.973Z,97396.88
2023-12-18T01:29:10.220Z,97394.59
2023-12-18T01:31:38.732Z,97398.66
2023-12-18T01:34:08.550Z,97393.59
2023-12-18T01:36:36.909Z,97398.09
2023-12-18T01:39:05.237Z,97403.78
2023-12-18T01:41:33.573Z,97403.78
2023-12-18T01:44:01.761Z,97396.38
2023-12-18T01:46:30.289Z,97398.78
2023-12-18T01:48:58.637Z,97393.28
2023-12-18T01:51:28.601Z,97391.63
2023-12-18T01:53:57.127Z,97391.75
2023-12-18T01:56:27.665Z,97384.81
2023-12-18T01:58:56.047Z,97378.50
2023-12-18T02:01:24.309Z,97380.94
2023-12-18T02:03:52.683Z,97374.00
2023-12-18T02:06:20.942Z,97366.84
2023-12-18T02:08:50.461Z,97370.13
2023-12-18T02:11:18.658Z,97377.69
2023-12-18T02:13:46.952Z,97372.16
2023-12-18T02:16:15.134Z,97374.44
2023-12-18T02:18:46.668Z,97378.94
2023-12-18T02:21:20.151Z,97385.06
2023-12-18T02:23:49.876Z,97375.44
2023-12-18T02:26:18.270Z,97382.16
2023-12-18T02:28:46.842Z,97374.22
2023-12-18T02:31:15.485Z,97374.63
2023-12-18T02:33:49.962Z,97373.38
2023-12-18T02:36:19.093Z,97379.22
2023-12-18T02:38:47.350Z,97379.00
2023-12-18T02:41:17.273Z,97372.63
2023-12-18T02:43:45.474Z,97367.09
2023-12-18T02:46:13.701Z,97373.06
2023-12-18T02:48:42.065Z,97371.63
2023-12-18T02:51:10.381Z,97376.28
2023-12-18T02:53:38.608Z,97362.53
2023-12-18T02:56:07.638Z,97368.47
2023-12-18T02:58:37.255Z,97370.13
2023-12-18T03:01:05.801Z,97360.91
2023-12-18T03:03:34.163Z,97364.72
2023-12-18T03:06:02.903Z,97360.44
2023-12-18T03:08:31.454Z,97356.56
2023-12-18T03:10:59.666Z,97353.72
2023-12-18T03:13:27.886Z,97346.78
2023-12-18T03:15:58.273Z,97341.47
2023-12-18T03:18:26.735Z,97340.84
2023-12-18T03:20:55.104Z,97339.19
2023-12-18T03:23:23.302Z,97335.72
2023-12-18T03:25:51.617Z,97332.25
2023-12-18T03:28:19.997Z,97336.53
2023-12-18T03:30:48.270Z,97333.91
2023-12-18T03:33:18.198Z,97342.66
2023-12-18T03:35:46.837Z,97346.53
2023-12-18T03:38:15.030Z,97339.19
2023-12-18T03:40:43.455Z,97344.03
2023-12-18T03:43:11.680Z,97342.16
2023-12-18T03:45:40.249Z,97338.03
2023-12-18T03:48:09.472Z,97339.91
2023-12-18T03:50:39.155Z,97340.34
2023-12-18T03:53:09.776Z,97332.78
2023-12-18T03:55:38.114Z,97336.06
2023-12-18T03:58:06.611Z,97331.59
2023-12-18T04:00:36.137Z,97320.81
2023-12-18T04:03:05.516Z,97315.72
2023-12-18T04:05:33.921Z,97312.03
2023-12-18T04:08:03.684Z,97310.41
2023-12-18T04:10:32.218Z,97311.22
2023-12-18T04:13:00.416Z,97314.88
2023-12-18T04:15:29.458Z,97305.53
2023-12-18T04:17:59.129Z,97309.22
2023-12-18T04:20:27.389Z,97296.03
2023-12-18T04:22:55.583Z,97296.22
2023-12-18T04:25:25.957Z,97289.69
2023-12-18T04:27:54.716Z,97288.91
2023-12-18T04:30:23.439Z,97280.78
2023-12-18T04:32:51.720Z,97279.97
2023-12-18T04:35:19.958Z,97280.00
2023-12-18T04:37:48.185Z,97276.09
2023-12-18T04:40:16.727Z,97267.94
2023-12-18T04:42:46.628Z,97262.25
2023-12-18T04:45:15.465Z,97259.00
2023-12-18T04:47:43.854Z,97262.69
2023-12-18T04:50:12.362Z,97266.97
2023-12-18T04:52:40.808Z,97272.06
2023-12-18T04:55:10.136Z,97273.06
2023-12-18T04:57:39.494Z,97272.22
2023-12-18T05:00:10.543Z,97282.59
2023-12-18T05:02:39.294Z,97287.97
2023-12-18T05:05:07.901Z,97282.03
2023-12-18T05:07:36.119Z,97280.00
2023-12-18T05:10:04.460Z,97288.53
2023-12-18T05:12:32.965Z,97295.88
2023-12-18T05:15:03.785Z,97285.06
2023-12-18T05:17:34.418Z,97292.19
2023-12-18T05:20:02.802Z,97281.53
2023-12-18T05:22:30.978Z,97285.78
2023-12-18T05:24:59.437Z,97273.94
2023-12-18T05:27:27.630Z,97273.75
2023-12-18T05:29:55.912Z,97279.03
2023-12-18T05:32:24.307Z,97284.09
2023-12-18T05:34:54.086Z,97290.63
2023-12-18T05:37:23.365Z,97285.69
2023-12-18T05:39:50.879Z,97286.31
2023-12-18T05:42:20.673Z,97300.50
2023-12-18T05:44:48.996Z,97301.13
2023-12-18T05:47:17.202Z,97293.91
2023-12-18T05:49:45.570Z,97285.59
2023-12-18T05:52:15.317Z,97305.16
2023-12-18T05:54:43.670Z,97311.28
2023-12-18T05:57:13.594Z,97309.00
2023-12-18T05:59:41.811Z,97312.53
2023-12-18T06:02:10.025Z,97307.22
2023-12-18T06:04:39.854Z,97320.88
2023-12-18T06:07:08.141Z,97323.91
2023-12-18T06:09:37.879Z,97317.38
2023-12-18T06:12:07.144Z,97326.31
2023-12-18T06:14:35.320Z,97329.53
2023-12-18T06:17:03.499Z,97313.03
2023-12-18T06:19:32.182Z,97330.69
2023-12-18T06:22:00.803Z,97331.28
2023-12-18T06:24:29.024Z,97318.88
2023-12-18T06:26:58.621Z,97322.72
2023-12-18T06:29:28.312Z,97302.28
2023-12-18T06:31:56.725Z,97299.75
2023-12-18T06:34:25.120Z,97297.72
2023-12-18T06:36:53.374Z,97294.91
2023-12-18T06:39:21.737Z,97296.19
2023-12-18T06:41:49.971Z,97302.28
2023-12-18T06:44:19.601Z,97302.28
2023-12-18T06:46:47.817Z,97301.06
2023-12-18T06:49:16.116Z,97290.53
2023-12-18T06:51:45.575Z,97303.19
2023-12-18T06:54:13.874Z,97301.38
2023-12-18T06:56:42.108Z,97295.53
2023-12-18T06:59:10.360Z,97301.66
2023-12-18T07:01:40.503Z,97303.03
2023-12-18T07:04:08.882Z,97293.25
2023-12-18T07:06:37.194Z,97296.09
2023-12-18T07:09:05.560Z,97294.88
2023-12-18T07:11:33.867Z,97297.50
2023-12-18T07:14:02.083Z,97307.66
2023-12-18T07:16:30.333Z,97303.38
2023-12-18T07:19:00.044Z,97307.81
2023-12-18T07:21:28.393Z,97308.66
2023-12-18T07:23:56.604Z,97306.81
2023-12-18T07:26:24.818Z,97310.28
2023-12-18T07:28:52.990Z,97300.50
2023-12-18T07:31:21.277Z,97302.78
2023-12-18T07:33:49.596Z,97309.28
2023-12-18T07:36:19.433Z,97298.97
2023-12-18T07:38:48.177Z,97297.16
2023-12-18T07:41:16.501Z,97303.13
2023-12-18T07:43:44.972Z,97297.47
2023-12-18T07:46:19.973Z,97309.53
2023-12-18T07:48:49.077Z,97317.31
2023-12-18T07:51:17.558Z,97319.16
2023-12-18T07:53:47.151Z,97327.13
2023-12-18T07:56:15.478Z,97331.44
2023-12-18T07:58:43.711Z,97343.66
2023-12-18T08:01:12.071Z,97343.66
2023-12-18T08:03:40.437Z,97331.81
2023-12-18T08:06:08.744Z,97344.88
2023-12-18T08:08:36.989Z,97342.63
2023-12-18T08:11:07.341Z,97337.94
2023-12-18T08:13:39.702Z,97329.41
2023-12-18T08:16:08.670Z,97333.34
2023-12-18T08:18:37.066Z,97331.72
2023-12-18T08:21:06.077Z,97329.13
2023-12-18T08:23:34.439Z,97326.88
2023-12-18T08:26:02.668Z,97330.97
2023-12-18T08:28:32.244Z,97329.16
2023-12-18T08:31:00.564Z,97335.47
2023-12-18T08:33:29.054Z,97319.56
2023-12-18T08:35:57.321Z,97325.13
2023-12-18T08:38:25.543Z,97321.03
2023-12-18T08:40:55.050Z,97332.28
2023-12-18T08:43:23.216Z,97327.00
2023-12-18T08:45:52.863Z,97330.28
2023-12-18T08:48:21.377Z,97325.00
2023-12-18T08:50:49.943Z,97316.25
2023-12-18T08:53:18.213Z,97304.38
2023-12-18T08:55:46.465Z,97310.94
2023-12-18T08:58:14.708Z,97317.69
2023-12-18T09:00:43.130Z,97317.53
2023-12-18T09:03:12.915Z,97310.19
2023-12-18T09:05:43.409Z,97311.03
2023-12-18T09:08:14.920Z,97308.56
2023-12-18T09:10:43.366Z,97303.66
2023-12-18T09:13:11.860Z,97312.84
2023-12-18T09:15:41.741Z,97304.88
2023-12-18T09:18:10.186Z,97301.38
2023-12-18T09:20:39.984Z,97294.63
2023-12-18T09:23:09.780Z,97293.78
2023-12-18T09:25:38.134Z,97298.69
2023-12-18T09:28:06.774Z,97302.56
2023-12-18T09:30:35.105Z,97293.97
2023-12-18T09:33:03.746Z,97299.03
2023-12-18T09:35:32.052Z,97297.78
2023-12-18T09:38:01.625Z,97307.19
2023-12-18T09:40:29.897Z,97306.34
2023-12-18T09:42:58.096Z,97296.28
2023-12-18T09:45:26.985Z,97307.94
2023-12-18T09:47:55.605Z,97309.16
2023-12-18T09:50:23.998Z,97310.78
2023-12-18T09:53:04.094Z,97305.25
2023-12-18T09:55:32.770Z,97300.53
2023-12-18T09:58:01.749Z,97293.16
2023-12-18T10:00:30.301Z,97304.81
2023-12-18T10:02:59.077Z,97306.03
2023-12-18T10:05:27.765Z,97294.72
2023-12-18T10:07:56.239Z,97290.63
2023-12-18T10:10:25.967Z,97286.25
2023-12-18T10:12:54.380Z,97282.16
2023-12-18T10:15:25.596Z,97286.47
2023-12-18T10:17:54.049Z,97277.41
2023-12-18T10:20:22.209Z,97277.59
2023-12-18T10:22:50.579Z,97280.00
2023-12-18T10:25:18.860Z,97274.03
2023-12-18T10:27:49.599Z,97256.63
2023-12-18T10:30:19.269Z,97269.06
2023-12-18T10:32:48.768Z,97260.25
2023-12-18T10:35:17.098Z,97254.25
2023-12-18T10:37:46.728Z,97264.28
2023-12-18T10:40:15.092Z,97257.88
2023-12-18T10:42:46.826Z,97263.00
2023-12-18T10:45:17.752Z,97268.94
2023-12-18T10:47:45.996Z,97267.91
2023-12-18T10:50:14.228Z,97261.31
2023-12-18T10:52:43.843Z,97254.09
2023-12-18T10:55:12.875Z,97257.06
2023-12-18T10:57:42.475Z,97250.47
2023-12-18T11:00:11.985Z,97258.16
2023-12-18T11:02:41.590Z,97254.66
2023-12-18T11:05:09.991Z,97249.22
2023-12-18T11:07:38.279Z,97244.50
2023-12-18T11:10:07.676Z,97245.06
2023-12-18T11:12:35.975Z,97258.41
2023-12-18T11:15:07.240Z,97248.56
2023-12-18T11:17:42.418Z,97248.94
2023-12-18T11:20:13.127Z,97246.66
2023-12-18T11:22:42.250Z,97248.28
2023-12-18T11:25:11.082Z,97255.63
2023-12-18T11:27:40.762Z,97242.78
2023-12-18T11:30:26.038Z,97240.84
2023-12-18T11:32:55.881Z,97238.44
2023-12-18T11:35:29.764Z,97232.63
2023-12-18T11:38:04.517Z,97231.97
2023-12-18T11:40:41.334Z,97229.53
2023-12-18T11:43:10.124Z,97227.34
2023-12-18T11:45:39.874Z,97227.34
2023-12-18T11:48:10.324Z,97232.03
2023-12-18T11:50:39.642Z,97232.25
2023-12-18T11:53:21.818Z,97229.00
2023-12-18T11:55:51.469Z,97221.94
2023-12-18T11:58:20.729Z,97218.81
2023-12-18T12:00:49.637Z,97221.66
2023-12-18T12:03:19.454Z,97220.44
2023-12-18T12:05:48.060Z,97218.09
2023-12-18T12:08:16.366Z,97214.59
2023-12-18T12:10:44.739Z,97215.44
2023-12-18T12:13:19.422Z,97210.91
2023-12-18T12:15:57.746Z,97206.44
2023-12-18T12:18:28.634Z,97193.56
2023-12-18T12:20:56.940Z,97189.47
2023-12-18T12:23:25.422Z,97181.91
2023-12-18T12:25:53.786Z,97181.19
2023-12-18T12:28:22.570Z,97175.13
2023-12-18T12:30:50.943Z,97181.59
2023-12-18T12:33:19.425Z,97170.53
2023-12-18T12:35:49.216Z,97183.13
2023-12-18T12:38:18.495Z,97165.34
2023-12-18T12:40:47.276Z,97169.94
2023-12-18T12:43:16.468Z,97172.09
2023-12-18T12:45:44.774Z,97161.22
2023-12-18T12:48:14.087Z,97166.19
2023-12-18T12:50:43.208Z,97156.78
2023-12-18T12:53:12.941Z,97152.47
2023-12-18T12:55:41.929Z,97151.31
2023-12-18T12:58:10.526Z,97148.03
2023-12-18T13:00:39.020Z,97141.28
2023-12-18T13:03:07.275Z,97145.00
2023-12-18T13:05:35.534Z,97140.16
2023-12-18T13:08:03.952Z,97129.59
2023-12-18T13:10:33.891Z,97140.31
2023-12-18T13:13:02.159Z,97140.25
2023-12-18T13:15:30.496Z,97145.19
2023-12-18T13:17:58.981Z,97145.88
2023-12-18T13:20:29.232Z,97142.66
2023-12-18T13:22:58.230Z,97141.88
2023-12-18T13:25:26.417Z,97141.34
2023-12-18T13:27:56.178Z,97137.66
2023-12-18T13:30:25.387Z,97140.59
2023-12-18T13:32:53.861Z,97141.84
2023-12-18T13:35:23.753Z,97139.34
2023-12-18T13:37:52.043Z,97148.16
2023-12-18T13:40:20.233Z,97145.72
2023-12-18T13:42:48.832Z,97135.69
2023-12-18T13:45:21.357Z,97136.34
2023-12-18T13:47:50.866Z,97127.63
2023-12-18T13:50:18.660Z,97133.72
2023-12-18T13:52:49.899Z,97130.28
2023-12-18T13:55:18.278Z,97131.53
2023-12-18T13:57:49.103Z,97129.47
2023-12-18T14:00:22.105Z,97122.28
2023-12-18T14:02:52.357Z,97131.31
2023-12-18T14:05:22.103Z,97131.84
2023-12-18T14:07:50.455Z,97134.13
2023-12-18T14:10:18.626Z,97135.41
2023-12-18T14:12:47.189Z,97130.50
2023-12-18T14:15:15.896Z,97135.22
2023-12-18T14:17:45.634Z,97135.28
2023-12-18T14:20:14.023Z,97134.75
2023-12-18T14:22:42.535Z,97130.28
2023-12-18T14:25:10.966Z,97133.31
2023-12-18T14:27:39.281Z,97131.72
2023-12-18T14:30:09.114Z,97129.72
2023-12-18T14:32:37.351Z,97137.16
2023-12-18T14:35:07.927Z,97121.78
2023-12-18T14:37:36.192Z,97127.13
2023-12-18T14:40:04.795Z,97124.31
2023-12-18T14:42:33.052Z,97118.59
2023-12-18T14:45:01.549Z,97121.25
2023-12-18T14:47:30.086Z,97114.94
2023-12-18T14:49:58.586Z,97114.09
2023-12-18T14:52:28.346Z,97106.50
2023-12-18T14:54:56.738Z,97114.91
2023-12-18T14:57:25.095Z,97110.47
2023-12-18T14:59:53.260Z,97112.16
2023-12-18T15:02:21.618Z,97109.28
2023-12-18T15:04:49.843Z,97113.34
2023-12-18T15:07:18.443Z,97101.47
2023-12-18T15:09:48.113Z,97101.66
2023-12-18T15:12:16.837Z,97103.75
2023-12-18T15:14:45.138Z,97104.63
2023-12-18T15:17:13.331Z,97095.47
2023-12-18T15:19:42.297Z,97105.06
2023-12-18T15:22:11.443Z,97105.09
2023-12-18T15:24:39.841Z,97104.06
2023-12-18T15:27:10.046Z,97107.53
2023-12-18T15:29:38.246Z,97110.81
2023-12-18T15:32:08.236Z,97123.94
2023-12-18T15:34:36.842Z,97114.56
2023-12-18T15:37:05.534Z,97114.56
2023-12-18T15:39:33.840Z,97114.59
2023-12-18T15:42:02.188Z,97116.63
2023-12-18T15:44:32.058Z,97114.16
2023-12-18T15:47:02.271Z,97114.78
2023-12-18T15:49:30.602Z,97109.06
2023-12-18T15:51:58.904Z,97118.66
2023-12-18T15:54:27.118Z,97111.13
2023-12-18T15:56:55.336Z,97107.47
2023-12-18T15:59:24.069Z,97105.84
2023-12-18T16:01:53.700Z,97109.13
2023-12-18T16:04:21.976Z,97107.25
2023-12-18T16:06:50.274Z,97103.19
2023-12-18T16:09:18.804Z,97097.47
2023-12-18T16:11:48.806Z,97097.09
2023-12-18T16:14:17.002Z,97088.72
2023-12-18T16:16:45.209Z,97092.78
2023-12-18T16:19:14.934Z,97089.94
2023-12-18T16:21:45.510Z,97087.50
2023-12-18T16:24:13.841Z,97087.72
2023-12-18T16:26:42.299Z,97094.44
2023-12-18T16:29:11.441Z,97084.63
2023-12-18T16:31:39.822Z,97092.19
2023-12-18T16:34:08.534Z,97095.22
2023-12-18T16:36:38.204Z,97085.63
2023-12-18T16:39:06.661Z,97082.16
2023-12-18T16:41:37.906Z,97073.78
2023-12-18T16:44:06.222Z,97084.00
2023-12-18T16:46:40.458Z,97081.75
2023-12-18T16:49:13.725Z,97079.09
2023-12-18T16:51:43.533Z,97078.69
2023-12-18T16:54:12.583Z,97071.34
2023-12-18T16:56:40.852Z,97069.09
2023-12-18T16:59:09.946Z,97085.44
2023-12-18T17:01:38.165Z,97075.00
2023-12-18T17:04:06.813Z,97066.25
2023-12-18T17:06:35.193Z,97071.34
2023-12-18T17:09:04.900Z,97061.94
2023-12-18T17:11:33.434Z,97071.75
2023-12-18T17:14:01.833Z,97066.25
2023-12-18T17:16:30.311Z,97066.88
2023-12-18T17:18:58.709Z,97067.25
2023-12-18T17:21:27.017Z,97071.56
2023-12-18T17:23:55.230Z,97069.50
2023-12-18T17:26:24.830Z,97062.38
2023-12-18T17:28:55.058Z,97072.16
2023-12-18T17:31:23.863Z,97060.88
2023-12-18T17:33:52.418Z,97061.69
2023-12-18T17:36:20.779Z,97059.88
2023-12-18T17:38:49.018Z,97056.00
2023-12-18T17:41:17.319Z,97049.66
2023-12-18T17:43:46.980Z,97054.56
2023-12-18T17:46:15.177Z,97051.09
2023-12-18T17:48:44.013Z,97052.13
2023-12-18T17:51:12.472Z,97053.75
2023-12-18T17:53:41.260Z,97041.91
2023-12-18T17:56:09.489Z,97041.69
2023-12-18T17:58:38.000Z,97043.94
2023-12-18T18:01:07.709Z,97039.47
2023-12-18T18:03:36.333Z,97048.44
2023-12-18T18:06:04.968Z,97041.69
2023-12-18T18:08:33.168Z,97038.00
2023-12-18T18:11:01.373Z,97034.53
2023-12-18T18:13:29.611Z,97036.16
2023-12-18T18:15:58.074Z,97036.16
2023-12-18T18:18:28.044Z,97036.19
2023-12-18T18:20:56.263Z,97037.00
2023-12-18T18:23:24.454Z,97034.59
2023-12-18T18:25:52.651Z,97041.94
2023-12-18T18:28:20.910Z,97045.19
2023-12-18T18:30:50.525Z,97038.03
2023-12-18T18:33:19.036Z,97035.59
2023-12-18T18:35:48.868Z,97025.41
2023-12-18T18:38:17.162Z,97019.88
2023-12-18T18:40:45.385Z,97029.69
2023-12-18T18:43:13.565Z,97020.47
2023-12-18T18:45:41.799Z,97022.47
2023-12-18T18:48:12.716Z,97021.25
2023-12-18T18:50:42.132Z,97021.47
2023-12-18T18:53:11.745Z,97018.59
2023-12-18T18:55:40.233Z,97023.31
2023-12-18T18:58:08.460Z,97022.47
2023-12-18T19:00:36.771Z,97024.91
2023-12-18T19:03:10.429Z,97024.50
2023-12-18T19:05:44.745Z,97020.22
2023-12-18T19:08:14.323Z,97012.25
2023-12-18T19:10:42.718Z,97022.47
2023-12-18T19:13:10.884Z,97010.66
2023-12-18T19:15:39.171Z,97004.97
2023-12-18T19:18:08.425Z,97001.28
2023-12-18T19:20:36.752Z,96998.03
2023-12-18T19:23:05.451Z,97002.94
2023-12-18T19:25:35.068Z,96994.13
2023-12-18T19:28:03.303Z,97004.09
2023-12-18T19:30:31.631Z,96996.75
2023-12-18T19:32:59.908Z,96993.28
2023-12-18T19:35:28.271Z,96984.28
2023-12-18T19:37:56.652Z,96974.31
2023-12-18T19:40:24.850Z,96968.75
2023-12-18T19:42:54.509Z,96981.41
2023-12-18T19:45:22.807Z,96975.09
2023-12-18T19:50:20.713Z,96975.28
2023-12-18T19:52:49.035Z,96960.78
2023-12-18T19:55:17.277Z,96961.84
2023-12-18T19:57:46.631Z,96959.41
2023-12-18T20:00:17.231Z,96969.56
2023-12-18T20:02:46.557Z,96959.59
2023-12-18T20:05:14.840Z,96957.16
2023-12-18T20:07:43.047Z,96955.34
2023-12-18T20:10:12.848Z,96959.03
2023-12-18T20:12:41.380Z,96950.16
2023-12-18T20:15:11.399Z,96947.75
2023-12-18T20:17:41.039Z,96954.31
2023-12-18T20:20:09.986Z,96950.84
2023-12-18T20:22:38.249Z,96939.78
2023-12-18T20:25:07.408Z,96941.00
2023-12-18T20:27:35.699Z,96937.53
2023-12-18T20:30:03.991Z,96942.06
2023-12-18T20:32:34.856Z,96935.69
2023-12-18T20:35:06.722Z,96939.38
2023-12-18T20:37:35.012Z,96941.88
2023-12-18T20:40:03.296Z,96944.31
2023-12-18T20:42:32.052Z,96943.25
2023-12-18T20:45:00.461Z,96939.78
2023-12-18T20:47:28.688Z,96943.25
2023-12-18T20:49:58.317Z,96938.16
2023-12-18T20:52:28.082Z,96943.63
2023-12-18T20:54:56.480Z,96940.38
2023-12-18T20:57:24.824Z,96943.25
2023-12-18T21:00:07.537Z,96934.69
2023-12-18T21:02:41.691Z,96933.22
2023-12-18T21:05:10.831Z,96934.03
2023-12-18T21:07:40.398Z,96936.53
2023-12-18T21:10:09.513Z,96938.16
2023-12-18T21:12:37.747Z,96934.06
2023-12-18T21:15:06.820Z,96927.28
2023-12-18T21:17:35.225Z,96921.75
2023-12-18T21:20:03.499Z,96931.38
2023-12-18T21:22:31.855Z,96937.50
2023-12-18T21:25:01.564Z,96927.28
2023-12-18T21:27:29.870Z,96937.25
2023-12-18T21:29:58.097Z,96930.16
2023-12-18T21:32:26.401Z,96937.94
2023-12-18T21:34:54.827Z,96922.38
2023-12-18T21:37:23.191Z,96919.34
2023-12-18T21:39:52.592Z,96919.16
2023-12-18T21:42:22.463Z,96908.13
2023-12-18T21:44:50.630Z,96893.44
2023-12-18T21:47:18.876Z,96904.09
2023-12-18T21:49:47.644Z,96892.84
2023-12-18T21:52:16.387Z,96891.88
2023-12-18T21:54:44.722Z,96880.50
2023-12-18T21:57:14.374Z,96883.97
2023-12-18T21:59:44.210Z,96881.25
2023-12-18T22:02:12.420Z,96892.91
2023-12-18T22:04:40.715Z,96893.72
2023-12-18T22:07:09.091Z,96890.41
2023-12-18T22:09:38.090Z,96878.41
2023-12-18T22:12:07.683Z,96897.75
2023-12-18T22:14:35.906Z,96898.22
2023-12-18T22:17:05.862Z,96886.78
2023-12-18T22:19:34.136Z,96894.34
2023-12-18T22:22:04.197Z,96872.47
2023-12-18T22:24:32.516Z,96870.44
2023-12-18T22:27:02.825Z,96856.31
2023-12-18T22:29:31.091Z,96855.28
2023-12-18T22:32:01.453Z,96856.66
2023-12-18T22:34:32.160Z,96852.38
2023-12-18T22:37:00.560Z,96841.69
2023-12-18T22:39:28.890Z,96850.88
2023-12-18T22:41:57.101Z,96849.44
2023-12-18T22:44:25.966Z,96839.81
2023-12-18T22:46:54.217Z,96821.00
2023-12-18T22:49:22.484Z,96818.09
2023-12-18T22:51:52.794Z,96818.09
2023-12-18T22:54:21.143Z,96814.00
2023-12-18T22:56:49.382Z,96806.56
2023-12-18T22:59:17.614Z,96799.16
2023-12-18T23:01:46.206Z,96795.31
2023-12-18T23:04:14.553Z,96797.72
2023-12-18T23:06:42.910Z,96795.31
2023-12-18T23:09:15.033Z,96786.94
2023-12-18T23:11:43.314Z,96785.00
2023-12-18T23:14:11.871Z,96785.78
2023-12-18T23:16:40.124Z,96773.72
2023-12-18T23:19:08.403Z,96777.09
2023-12-18T23:21:40.966Z,96774.91
2023-12-18T23:24:10.009Z,96765.59
2023-12-18T23:26:39.937Z,96757.63
2023-12-18T23:29:09.818Z,96768.78
2023-12-18T23:31:38.717Z,96769.94
2023-12-18T23:34:07.110Z,96767.59
2023-12-18T23:36:35.500Z,96762.50
2023-12-18T23:39:03.746Z,96750.31
2023-12-18T23:41:32.333Z,96742.34
2023-12-18T23:44:01.983Z,96759.09
2023-12-18T23:46:30.215Z,96747.88
2023-12-18T23:48:58.703Z,96750.53
2023-12-18T23:51:27.295Z,96745.97
2023-12-18T23:53:55.575Z,96757.03
2023-12-18T23:56:24.066Z,96756.38
2023-12-18T23:58:52.525Z,96749.59
